createdAt,value
2018-07-09T00:01:06.563Z,3.03
2018-07-09T00:06:09.722Z,3.67
2018-07-09T00:11:12.775Z,3.53
2018-07-09T00:16:15.896Z,3.80
2018-07-09T00:21:19.061Z,4.60
2018-07-09T00:26:22.182Z,3.40
2018-07-09T00:31:25.284Z,2.70
2018-07-09T00:36:28.415Z,3.60
2018-07-09T00:41:31.541Z,3.73
2018-07-09T00:46:34.658Z,2.70
2018-07-09T00:51:37.795Z,2.93
2018-07-09T00:56:40.914Z,2.97
2018-07-09T01:01:44.107Z,4.30
2018-07-09T01:06:47.240Z,3.90
2018-07-09T01:12:00.395Z,3.63
2018-07-09T01:17:03.360Z,4.20
2018-07-09T01:22:06.761Z,3.73
2018-07-09T01:27:09.884Z,3.67
2018-07-09T01:32:12.996Z,4.60
2018-07-09T01:37:16.107Z,3.53
2018-07-09T01:42:19.253Z,3.13
2018-07-09T01:47:22.359Z,4.13
2018-07-09T01:52:25.490Z,3.80
2018-07-09T01:57:28.672Z,4.00
2018-07-09T02:02:31.762Z,3.90
2018-07-09T02:07:34.860Z,3.70
2018-07-09T02:12:37.962Z,3.50
2018-07-09T02:17:41.081Z,3.57
2018-07-09T02:22:44.199Z,3.90
2018-07-09T02:27:47.096Z,3.67
2018-07-09T02:32:50.208Z,3.60
2018-07-09T02:37:53.113Z,3.20
2018-07-09T02:42:56.232Z,3.47
2018-07-09T02:47:59.348Z,2.90
2018-07-09T02:53:02.464Z,3.57
2018-07-09T02:58:09.139Z,4.07
2018-07-09T03:03:12.232Z,4.87
2018-07-09T03:08:15.141Z,4.30
2018-07-09T03:13:18.263Z,4.00
2018-07-09T03:18:21.368Z,4.20
2018-07-09T03:23:24.465Z,3.57
2018-07-09T03:28:27.605Z,3.83
2018-07-09T03:33:30.712Z,3.97
2018-07-09T03:38:33.847Z,3.73
2018-07-09T03:43:36.972Z,4.13
2018-07-09T03:48:40.084Z,4.63
2018-07-09T03:53:43.176Z,4.80
2018-07-09T03:58:46.316Z,4.33
2018-07-09T04:03:49.424Z,4.43
2018-07-09T04:08:52.540Z,4.10
2018-07-09T04:13:55.664Z,4.40
2018-07-09T04:18:58.784Z,4.13
2018-07-09T04:24:01.870Z,3.83
2018-07-09T04:29:05.012Z,3.57
2018-07-09T04:34:08.194Z,3.30
2018-07-09T04:39:11.305Z,3.67
2018-07-09T04:44:14.437Z,3.63
2018-07-09T04:49:17.516Z,3.47
2018-07-09T04:54:20.722Z,3.80
2018-07-09T04:59:23.837Z,3.80
2018-07-09T05:04:26.976Z,3.20
2018-07-09T05:09:30.070Z,6.10
2018-07-09T05:14:33.168Z,3.60
2018-07-09T05:19:36.282Z,4.17
2018-07-09T05:24:39.388Z,3.87
2018-07-09T05:29:42.513Z,4.00
2018-07-09T05:34:45.641Z,3.30
2018-07-09T05:39:48.797Z,4.47
2018-07-09T05:44:51.909Z,4.20
2018-07-09T05:49:55.059Z,4.10
2018-07-09T05:54:58.205Z,4.10
2018-07-09T06:00:01.349Z,5.10
2018-07-09T06:05:04.484Z,4.50
2018-07-09T06:10:07.681Z,3.63
2018-07-09T06:15:10.805Z,4.43
2018-07-09T06:20:13.904Z,4.97
2018-07-09T06:25:17.007Z,4.57
2018-07-09T06:30:20.095Z,4.47
2018-07-09T06:35:23.213Z,4.20
2018-07-09T06:40:26.324Z,3.83
2018-07-09T06:45:29.467Z,4.27
2018-07-09T06:50:32.566Z,4.00
2018-07-09T06:55:35.673Z,4.43
2018-07-09T07:00:38.773Z,4.90
2018-07-09T07:05:41.877Z,3.73
2018-07-09T07:10:45.053Z,4.17
2018-07-09T07:15:48.289Z,3.80
2018-07-09T07:20:51.384Z,4.10
2018-07-09T07:25:54.480Z,4.03
2018-07-09T07:30:57.599Z,3.77
2018-07-09T07:36:00.748Z,4.17
2018-07-09T07:41:03.923Z,4.43
2018-07-09T07:46:07.069Z,3.33
2018-07-09T07:51:10.177Z,6.40
2018-07-09T07:56:13.313Z,5.50
2018-07-09T08:01:16.432Z,4.43
2018-07-09T08:06:19.360Z,4.30
2018-07-09T08:11:47.690Z,4.10
2018-07-09T08:16:25.610Z,4.00
2018-07-09T08:21:28.745Z,4.10
2018-07-09T08:26:31.923Z,4.30
2018-07-09T08:31:35.072Z,3.27
2018-07-09T08:36:38.245Z,3.60
2018-07-09T08:41:41.555Z,3.90
2018-07-09T08:46:44.762Z,4.33
2018-07-09T08:51:47.984Z,3.57
2018-07-09T08:56:51.273Z,3.23
2018-07-09T09:01:54.393Z,3.07
2018-07-09T09:06:57.499Z,2.60
2018-07-09T09:12:00.658Z,2.20
2018-07-09T09:17:03.759Z,2.53
2018-07-09T09:22:06.892Z,2.43
2018-07-09T09:27:09.789Z,2.80
2018-07-09T09:32:12.896Z,2.43
2018-07-09T09:37:16.037Z,3.00
2018-07-09T09:42:19.152Z,3.33
2018-07-09T09:47:22.365Z,2.00
2018-07-09T09:52:25.510Z,2.20
2018-07-09T09:57:28.752Z,1.47
2018-07-09T10:02:31.855Z,1.87
2018-07-09T10:07:39.298Z,1.37
2018-07-09T10:12:42.427Z,2.30
2018-07-09T10:17:45.538Z,1.93
2018-07-09T10:22:48.950Z,2.00
2018-07-09T10:27:53.901Z,2.30
2018-07-09T10:32:57.147Z,1.67
2018-07-09T10:38:00.248Z,1.60
2018-07-09T10:43:03.356Z,1.37
2018-07-09T10:48:06.541Z,2.43
2018-07-09T10:53:09.668Z,1.70
2018-07-09T10:58:12.765Z,2.10
2018-07-09T11:03:15.893Z,2.13
2018-07-09T11:08:19.058Z,2.07
2018-07-09T11:13:22.169Z,1.83
2018-07-09T11:18:25.316Z,2.37
2018-07-09T11:23:28.420Z,1.80
2018-07-09T11:28:31.712Z,2.10
2018-07-09T11:33:34.848Z,1.80
2018-07-09T11:38:37.974Z,2.60
2018-07-09T11:43:41.104Z,1.90
2018-07-09T11:48:44.348Z,1.87
2018-07-09T11:53:47.469Z,2.37
2018-07-09T11:58:50.631Z,2.93
2018-07-09T12:03:53.675Z,1.80
2018-07-09T12:08:56.801Z,1.30
2018-07-09T12:13:59.916Z,1.70
2018-07-09T12:19:03.038Z,1.70
2018-07-09T12:24:06.157Z,1.10
2018-07-09T12:29:09.503Z,1.60
2018-07-09T12:34:12.416Z,1.60
2018-07-09T12:39:15.540Z,1.53
2018-07-09T12:44:18.768Z,1.00
2018-07-09T12:49:21.662Z,1.73
2018-07-09T12:54:24.765Z,2.20
2018-07-09T12:59:27.884Z,1.40
2018-07-09T13:04:31.025Z,1.77
2018-07-09T13:09:34.181Z,2.20
2018-07-09T13:14:37.401Z,1.30
2018-07-09T13:19:40.438Z,1.80
2018-07-09T13:24:43.551Z,1.83
2018-07-09T13:29:46.700Z,1.80
2018-07-09T13:34:49.837Z,2.63
2018-07-09T13:39:52.775Z,2.17
2018-07-09T13:44:55.969Z,1.80
2018-07-09T13:49:58.848Z,1.63
2018-07-09T13:55:02.101Z,2.30
2018-07-09T14:00:05.837Z,1.87
2018-07-09T14:05:08.948Z,2.30
2018-07-09T14:10:12.264Z,2.50
2018-07-09T14:15:15.432Z,1.97
2018-07-09T14:20:28.545Z,2.20
2018-07-09T14:25:31.685Z,2.00
2018-07-09T14:30:34.955Z,2.47
2018-07-09T14:35:38.085Z,1.97
2018-07-09T14:40:41.215Z,1.13
2018-07-09T14:45:44.337Z,2.00
2018-07-09T14:50:47.579Z,1.80
2018-07-09T14:55:50.683Z,2.03
2018-07-09T15:00:53.821Z,1.87
2018-07-09T15:05:56.921Z,2.10
2018-07-09T15:11:00.068Z,1.67
2018-07-09T15:16:03.210Z,1.60
2018-07-09T15:21:06.850Z,1.90
2018-07-09T15:26:09.913Z,1.80
2018-07-09T15:31:13.040Z,2.20
2018-07-09T15:36:16.120Z,1.53
2018-07-09T15:41:19.249Z,1.60
2018-07-09T15:46:22.380Z,1.73
2018-07-09T15:51:25.924Z,1.97
2018-07-09T15:56:29.275Z,2.23
2018-07-09T16:01:32.510Z,2.10
2018-07-09T16:06:35.677Z,1.90
2018-07-09T16:11:38.800Z,1.50
2018-07-09T16:16:41.908Z,1.90
2018-07-09T16:21:45.045Z,1.37
2018-07-09T16:26:48.179Z,1.60
2018-07-09T16:31:51.353Z,1.97
2018-07-09T16:36:54.635Z,1.60
2018-07-09T16:41:57.772Z,1.83
2018-07-09T16:47:00.957Z,2.00
2018-07-09T16:52:03.925Z,1.47
2018-07-09T16:57:07.048Z,2.33
2018-07-09T17:02:10.028Z,2.00
2018-07-09T17:07:13.150Z,1.80
2018-07-09T17:12:16.263Z,1.93
2018-07-09T17:17:19.397Z,2.20
2018-07-09T17:22:22.520Z,1.70
2018-07-09T17:27:25.784Z,1.50
2018-07-09T17:32:28.728Z,1.50
2018-07-09T17:37:31.801Z,1.90
2018-07-09T17:42:34.958Z,1.97
2018-07-09T17:47:38.105Z,2.00
2018-07-09T17:52:41.297Z,2.43
2018-07-09T17:57:44.218Z,2.00
2018-07-09T18:02:47.403Z,2.23
2018-07-09T18:07:50.484Z,2.10
2018-07-09T18:12:53.632Z,1.83
2018-07-09T18:17:56.779Z,1.80
2018-07-09T18:22:59.922Z,1.80
2018-07-09T18:28:03.037Z,2.07
2018-07-09T18:33:06.170Z,1.90
2018-07-09T18:38:09.340Z,2.00
2018-07-09T18:43:12.453Z,1.70
2018-07-09T18:48:15.607Z,1.93
2018-07-09T18:53:18.820Z,2.20
2018-07-09T18:58:22.266Z,2.00
2018-07-09T19:03:25.299Z,1.80
2018-07-09T19:08:28.408Z,1.87
2018-07-09T19:13:31.517Z,2.00
2018-07-09T19:18:46.228Z,1.70
2018-07-09T19:23:48.424Z,1.83
2018-07-09T19:28:51.030Z,1.87
2018-07-09T19:33:53.223Z,1.80
2018-07-09T19:38:55.407Z,2.13
2018-07-09T19:43:57.904Z,1.80
2018-07-09T19:49:00.083Z,3.83
2018-07-09T19:54:02.251Z,2.40
2018-07-09T19:59:04.432Z,1.60
2018-07-09T20:04:06.636Z,1.87
2018-07-09T20:09:14.297Z,2.00
2018-07-09T20:14:21.929Z,1.83
2018-07-09T20:19:24.122Z,2.00
2018-07-09T20:24:26.318Z,1.83
2018-07-09T20:29:28.544Z,1.73
2018-07-09T20:34:30.726Z,1.40
2018-07-09T20:39:32.915Z,1.83
2018-07-09T20:44:35.101Z,1.70
2018-07-09T20:49:37.402Z,2.00
2018-07-09T20:54:39.609Z,1.90
2018-07-09T20:59:41.973Z,1.63
2018-07-09T21:04:44.220Z,1.70
2018-07-09T21:09:46.343Z,1.80
2018-07-09T21:14:48.570Z,1.33
2018-07-09T21:19:50.761Z,2.03
2018-07-09T21:24:52.946Z,2.10
2018-07-09T21:29:55.440Z,1.90
2018-07-09T21:34:57.768Z,2.07
2018-07-09T21:39:59.940Z,2.00
2018-07-09T21:45:02.396Z,2.07
2018-07-09T21:50:04.590Z,2.30
2018-07-09T21:55:06.882Z,1.50
2018-07-09T22:00:09.060Z,2.07
2018-07-09T22:05:11.239Z,1.93
2018-07-09T22:10:13.432Z,2.30
2018-07-09T22:15:15.627Z,2.37
2018-07-09T22:20:17.825Z,1.40
2018-07-09T22:25:20.005Z,1.60
2018-07-09T22:30:27.389Z,1.57
2018-07-09T22:35:31.389Z,1.50
2018-07-09T22:40:34.510Z,2.17
2018-07-09T22:45:37.608Z,2.43
2018-07-09T22:50:40.728Z,1.80
2018-07-09T22:55:55.448Z,1.90
2018-07-09T23:00:58.693Z,1.47
2018-07-09T23:06:01.840Z,1.47
2018-07-09T23:12:16.208Z,3.40
2018-07-09T23:17:30.813Z,1.57
2018-07-09T23:22:33.268Z,1.70
2018-07-09T23:27:35.465Z,1.63
2018-07-09T23:32:37.668Z,1.87
2018-07-09T23:37:39.849Z,1.80
2018-07-09T23:42:42.054Z,1.83
2018-07-09T23:52:52.996Z,1.90
2018-07-09T23:58:23.831Z,1.37
